Time;durP1;ratioP1;P1;durP2;ratioP2;P2;SDS_P1;SDS_P2;PMS_P1;PMS_P2;Temp;Humidity;BMP_temperature;BMP_pressure;BME280_temperature;BME280_humidity;BME280_pressure;Samples;Min_cycle;Max_cycle;Signal;HPM_P1;HPM_P2
2023/06/03 00:01:59;;;;;;;8.38;1.65;;;14.80;99.90;;;;;;4989101;28;20074;-89
2023/06/03 00:04:28;;;;;;;1.77;0.60;;;14.20;99.90;;;;;;5011305;28;20195;-89
2023/06/03 00:06:54;;;;;;;9.05;0.70;;;12.80;99.90;;;;;;4988260;28;20056;-94
2023/06/03 00:09:19;;;;;;;4.10;0.93;;;12.70;99.90;;;;;;5014276;28;20534;-86
2023/06/03 00:11:45;;;;;;;2.22;0.73;;;14.00;99.90;;;;;;5011978;28;20401;-87
2023/06/03 00:14:11;;;;;;;3.25;0.80;;;13.90;99.90;;;;;;5008872;28;20061;-90
2023/06/03 00:16:36;;;;;;;2.13;0.80;;;12.70;99.90;;;;;;5007005;28;20065;-90
2023/06/03 00:19:02;;;;;;;2.15;0.80;;;12.80;99.90;;;;;;5011444;28;20033;-91
2023/06/03 00:21:29;;;;;;;1.75;0.77;;;14.40;99.90;;;;;;5013676;28;20134;-89
2023/06/03 00:23:55;;;;;;;1.80;0.73;;;12.60;99.90;;;;;;5008641;28;20053;-92
2023/06/03 00:26:22;;;;;;;3.65;0.52;;;12.60;99.90;;;;;;5002444;28;20085;-92
2023/06/03 00:28:48;;;;;;;1.08;0.68;;;12.50;99.90;;;;;;5009199;28;20132;-91
2023/06/03 00:31:14;;;;;;;2.83;1.00;;;13.50;99.90;;;;;;5014174;28;20037;-88
2023/06/03 00:33:40;;;;;;;1.55;0.77;;;14.30;99.90;;;;;;5016426;28;20125;-89
2023/06/03 00:36:06;;;;;;;2.13;0.70;;;12.60;99.90;;;;;;5011482;28;20086;-90
2023/06/03 00:38:31;;;;;;;1.58;0.60;;;12.40;99.90;;;;;;5010667;28;20034;-85
2023/06/03 00:40:57;;;;;;;1.58;0.60;;;12.40;99.90;;;;;;5007283;28;20050;-92
2023/06/03 00:43:23;;;;;;;3.72;1.17;;;12.30;99.90;;;;;;5009082;28;20387;-90
2023/06/03 00:45:48;;;;;;;2.63;0.80;;;12.80;99.90;;;;;;5010898;28;20096;-88
2023/06/03 00:48:14;;;;;;;3.03;0.80;;;14.00;99.90;;;;;;5008810;28;20485;-89
2023/06/03 00:50:41;;;;;;;3.90;0.40;;;12.30;99.90;;;;;;5011792;28;20050;-89
2023/06/03 00:53:07;;;;;;;1.30;0.70;;;12.20;99.90;;;;;;5013246;28;20042;-94
2023/06/03 00:55:34;;;;;;;0.70;0.50;;;12.20;99.90;;;;;;5010705;28;20054;-92
2023/06/03 00:58:00;;;;;;;1.55;0.43;;;14.00;99.90;;;;;;5011559;28;20052;-90
2023/06/03 01:00:26;;;;;;;2.78;0.60;;;13.90;99.90;;;;;;5005850;28;20101;-88
2023/06/03 01:02:52;;;;;;;2.05;0.60;;;12.10;99.90;;;;;;5005080;28;20053;-92
2023/06/03 01:05:18;;;;;;;3.10;0.77;;;12.40;99.90;;;;;;5005521;28;20050;-86
2023/06/03 01:07:56;;;;;;;5.15;0.98;;;12.10;99.90;;;;;;5026477;28;20115;-89
2023/06/03 01:10:48;;;;;;;1.13;0.45;;;13.00;99.90;;;;;;5041925;28;20046;-88
2023/06/03 01:13:43;;;;;;;2.97;0.70;;;12.10;99.90;;;;;;5004989;28;20061;-89
2023/06/03 01:16:12;;;;;;;2.50;0.40;;;12.00;99.90;;;;;;5011198;28;20514;-88
2023/06/03 01:18:38;;;;;;;2.40;0.50;;;12.00;99.90;;;;;;5009061;28;20030;-90
2023/06/03 01:21:05;;;;;;;4.82;0.70;;;13.40;99.90;;;;;;5013904;28;20052;-88
2023/06/03 01:23:34;;;;;;;1.50;0.50;;;12.00;99.90;;;;;;5013192;28;20104;-89
2023/06/03 01:26:01;;;;;;;1.30;0.60;;;11.90;99.90;;;;;;5009624;28;20042;-89
2023/06/03 01:28:28;;;;;;;3.63;0.70;;;12.00;99.90;;;;;;5010101;28;20052;-89
2023/06/03 01:30:59;;;;;;;1.70;0.63;;;12.60;99.90;;;;;;5012783;28;20038;-92
2023/06/03 01:33:28;;;;;;;1.98;0.38;;;13.00;99.90;;;;;;5040209;28;20046;-90
2023/06/03 01:35:56;;;;;;;2.78;0.60;;;13.70;99.90;;;;;;5012754;28;20071;-90
2023/06/03 01:38:23;;;;;;;0.80;0.50;;;13.80;99.90;;;;;;5006127;28;20494;-91
2023/06/03 01:40:50;;;;;;;1.40;0.85;;;11.90;99.90;;;;;;5012439;28;20037;-85
2023/06/03 01:43:16;;;;;;;0.70;0.40;;;11.80;99.90;;;;;;5011101;28;20037;-90
2023/06/03 01:45:42;;;;;;;2.78;0.43;;;12.50;99.90;;;;;;5016390;28;20470;-89
2023/06/03 01:48:07;;;;;;;1.00;0.50;;;12.80;99.90;;;;;;5013641;28;20037;-86
2023/06/03 01:50:33;;;;;;;2.85;0.75;;;11.70;99.90;;;;;;5009834;28;20049;-92
2023/06/03 01:52:59;;;;;;;4.82;0.70;;;11.70;99.90;;;;;;5012535;28;20042;-92
2023/06/03 01:55:25;;;;;;;0.88;0.50;;;13.20;99.90;;;;;;5007053;28;20494;-92
2023/06/03 01:57:50;;;;;;;4.32;0.75;;;12.70;99.90;;;;;;5009695;28;20041;-89
2023/06/03 02:00:16;;;;;;;0.70;0.30;;;11.70;99.90;;;;;;5002431;28;20045;-92
2023/06/03 02:02:43;;;;;;;2.83;1.23;;;11.70;99.90;;;;;;5010743;28;20121;-90
2023/06/03 02:05:09;;;;;;;2.97;0.98;;;11.70;99.90;;;;;;5010815;28;20041;-89
2023/06/03 02:07:34;;;;;;;3.60;0.70;;;13.60;99.90;;;;;;5010585;28;20041;-91
2023/06/03 02:10:01;;;;;;;2.47;0.55;;;11.60;99.90;;;;;;5011846;28;20040;-91
2023/06/03 02:12:26;;;;;;;2.40;0.70;;;13.30;99.90;;;;;;5013026;28;20045;-88
2023/06/03 02:14:56;;;;;;;3.42;0.68;;;11.60;99.90;;;;;;5010593;28;20489;-90
2023/06/03 02:17:24;;;;;;;3.38;0.82;;;13.80;99.90;;;;;;5009293;28;20523;-89
2023/06/03 02:19:50;;;;;;;0.88;0.60;;;11.90;99.90;;;;;;5005020;28;20398;-92
2023/06/03 02:22:17;;;;;;;1.25;0.60;;;12.10;99.90;;;;;;5009039;28;20037;-90
2023/06/03 02:24:43;;;;;;;3.08;0.70;;;13.50;99.90;;;;;;5003634;28;20074;-90
2023/06/03 02:27:09;;;;;;;1.25;0.57;;;11.60;99.90;;;;;;5002699;28;20100;-89
2023/06/03 02:29:35;;;;;;;1.17;0.60;;;12.30;99.90;;;;;;5004918;28;20042;-91
2023/06/03 02:32:01;;;;;;;1.42;0.77;;;13.70;99.90;;;;;;5004396;28;20422;-89
2023/06/03 02:34:27;;;;;;;3.33;0.60;;;12.00;99.90;;;;;;5008847;28;20188;-92
2023/06/03 02:36:53;;;;;;;1.58;0.50;;;11.50;99.90;;;;;;5017579;28;20565;-88
2023/06/03 02:39:20;;;;;;;3.15;0.85;;;11.50;99.90;;;;;;5019746;28;20053;-91
2023/06/03 02:41:46;;;;;;;3.13;0.55;;;11.40;99.90;;;;;;5015307;28;20394;-93
2023/06/03 02:44:16;;;;;;;1.60;0.50;;;11.10;99.90;;;;;;5013295;28;20093;-91
2023/06/03 02:46:42;;;;;;;1.50;0.43;;;11.40;99.90;;;;;;5011727;28;20037;-88
2023/06/03 02:49:09;;;;;;;0.80;0.40;;;11.40;99.90;;;;;;5011112;28;20038;-92
2023/06/03 02:51:36;;;;;;;1.73;0.57;;;13.20;99.90;;;;;;5011824;28;20044;-91
2023/06/03 02:54:02;;;;;;;1.35;0.60;;;11.40;99.90;;;;;;5020292;28;20046;-94
2023/06/03 02:56:28;;;;;;;0.98;0.43;;;11.40;99.90;;;;;;5006494;28;20049;-87
2023/06/03 02:58:57;;;;;;;0.98;0.50;;;12.20;99.90;;;;;;5009538;28;20071;-90
2023/06/03 03:01:23;;;;;;;3.42;0.52;;;11.30;99.90;;;;;;5009480;28;20060;-92
2023/06/03 03:03:49;;;;;;;2.38;0.55;;;11.20;99.90;;;;;;5009627;28;20409;-90
2023/06/03 03:06:16;;;;;;;1.00;0.50;;;11.30;99.90;;;;;;5009769;28;20125;-93
2023/06/03 03:08:46;;;;;;;1.80;0.77;;;12.20;99.90;;;;;;5004690;28;20042;-87
2023/06/03 03:11:13;;;;;;;1.40;0.30;;;12.70;99.90;;;;;;5008948;28;20428;-91
2023/06/03 03:13:38;;;;;;;2.03;0.50;;;11.20;99.90;;;;;;5008209;28;20044;-87
2023/06/03 03:16:04;;;;;;;0.88;0.60;;;12.90;99.90;;;;;;4997941;28;20049;-90
2023/06/03 03:18:33;;;;;;;0.90;0.50;;;11.20;99.90;;;;;;4992098;28;20041;-88
2023/06/03 03:20:59;;;;;;;0.82;0.30;;;12.90;99.90;;;;;;5005156;28;20125;-90
2023/06/03 03:23:27;;;;;;;3.40;0.80;;;13.10;99.90;;;;;;5009527;28;20034;-88
2023/06/03 03:25:52;;;;;;;3.53;0.63;;;12.60;99.90;;;;;;5007535;28;20041;-87
2023/06/03 03:28:18;;;;;;;2.15;0.63;;;11.50;99.90;;;;;;5011288;28;20457;-88
2023/06/03 03:30:45;;;;;;;0.80;0.50;;;11.90;99.90;;;;;;5005499;28;20541;-91
2023/06/03 03:33:15;;;;;;;1.55;0.30;;;11.10;99.90;;;;;;5008792;28;20034;-88
2023/06/03 03:35:40;;;;;;;0.88;0.30;;;11.10;99.90;;;;;;4989531;28;20056;-88
2023/06/03 03:38:07;;;;;;;1.88;0.47;;;11.90;99.90;;;;;;5008575;28;20497;-89
2023/06/03 03:40:36;;;;;;;1.33;0.40;;;11.90;99.90;;;;;;5006871;28;20121;-88
2023/06/03 03:43:02;;;;;;;0.80;0.50;;;11.00;99.90;;;;;;5009221;28;20042;-90
2023/06/03 03:45:37;;;;;;;2.53;0.77;;;11.20;99.90;;;;;;5009030;28;20049;-89
2023/06/03 03:48:05;;;;;;;2.45;0.50;;;10.90;99.90;;;;;;5006066;28;20064;-87
2023/06/03 03:50:45;;;;;;;5.13;0.95;;;10.90;99.90;;;;;;4984599;28;20061;-86
2023/06/03 03:53:22;;;;;;;2.08;0.60;;;10.90;99.90;;;;;;4999287;28;20100;-91
2023/06/03 03:55:53;;;;;;;0.77;0.38;;;10.80;99.90;;;;;;4981763;28;20043;-84
2023/06/03 03:58:26;;;;;;;1.88;0.70;;;11.70;99.90;;;;;;4983057;28;20065;-89
2023/06/03 04:00:59;;;;;;;2.05;0.70;;;10.70;99.90;;;;;;5002682;28;20414;-84
2023/06/03 04:03:25;;;;;;;2.17;1.00;;;12.50;99.90;;;;;;4990441;28;20053;-92
2023/06/03 04:05:52;;;;;;;1.98;0.52;;;10.70;99.90;;;;;;4987699;28;20049;-91
2023/06/03 04:08:40;;;;;;;3.03;0.60;;;10.80;99.90;;;;;;5006393;28;20049;-90
2023/06/03 04:11:08;;;;;;;0.95;0.40;;;12.50;99.90;;;;;;5005900;28;20042;-87
2023/06/03 04:13:40;;;;;;;2.58;0.60;;;10.60;99.90;;;;;;5006577;28;20046;-93
2023/06/03 04:16:11;;;;;;;1.20;0.60;;;10.70;99.90;;;;;;5007204;28;20076;-86
2023/06/03 04:18:41;;;;;;;2.25;0.57;;;12.30;99.90;;;;;;5011713;28;20645;-92
2023/06/03 04:21:18;;;;;;;3.35;0.52;;;10.80;99.90;;;;;;5030921;28;20148;-93
2023/06/03 04:23:45;;;;;;;0.73;0.60;;;10.60;99.90;;;;;;4980514;28;20041;-91
2023/06/03 04:26:12;;;;;;;2.88;0.60;;;10.60;99.90;;;;;;4980830;28;20046;-90
2023/06/03 04:28:38;;;;;;;3.10;0.88;;;12.00;99.90;;;;;;5016883;28;20042;-91
2023/06/03 04:31:09;;;;;;;2.50;0.70;;;10.60;99.90;;;;;;5024075;28;20045;-88
2023/06/03 04:33:38;;;;;;;2.55;0.88;;;12.30;99.90;;;;;;5023186;28;20069;-88
2023/06/03 04:36:06;;;;;;;2.50;0.80;;;12.40;99.90;;;;;;5016930;28;20454;-91
2023/06/03 04:38:33;;;;;;;2.85;1.13;;;10.60;99.90;;;;;;5018753;28;20034;-87
2023/06/03 04:41:03;;;;;;;1.27;0.70;;;12.50;99.90;;;;;;5005532;28;20078;-91
2023/06/03 04:43:35;;;;;;;1.25;0.50;;;10.50;99.90;;;;;;5042488;28;20456;-92
2023/06/03 04:46:10;;;;;;;2.20;0.80;;;10.50;99.90;;;;;;5020298;28;20096;-88
2023/06/03 04:48:45;;;;;;;1.27;0.68;;;10.50;99.90;;;;;;5002141;28;20038;-90
2023/06/03 04:51:11;;;;;;;1.00;0.85;;;12.60;99.90;;;;;;5008759;28;20041;-88
2023/06/03 04:53:37;;;;;;;1.35;0.57;;;12.30;99.90;;;;;;5018538;28;20041;-90
2023/06/03 04:56:04;;;;;;;1.10;0.47;;;10.40;99.90;;;;;;5012339;28;20129;-87
2023/06/03 04:58:30;;;;;;;1.48;0.80;;;10.50;99.90;;;;;;5005595;28;20144;-90
2023/06/03 05:00:57;;;;;;;3.53;0.90;;;10.50;99.90;;;;;;5005627;28;20436;-92
2023/06/03 05:03:23;;;;;;;2.22;0.80;;;12.50;99.90;;;;;;5009350;28;20044;-89
2023/06/03 05:05:52;;;;;;;2.03;1.00;;;10.50;99.90;;;;;;5011099;28;20037;-89
2023/06/03 05:08:18;;;;;;;2.08;0.65;;;10.60;99.90;;;;;;5008478;28;20168;-91
2023/06/03 05:10:43;;;;;;;2.97;0.80;;;11.40;99.90;;;;;;5001981;28;20115;-87
2023/06/03 05:13:09;;;;;;;2.63;1.13;;;10.60;99.90;;;;;;5003381;28;20042;-92
2023/06/03 05:15:35;;;;;;;1.90;1.00;;;10.70;99.90;;;;;;5005076;28;20046;-91
2023/06/03 05:18:02;;;;;;;1.85;0.80;;;12.60;99.90;;;;;;5001285;28;20062;-86
2023/06/03 05:20:30;;;;;;;1.65;0.90;;;10.70;99.90;;;;;;5002031;28;20033;-91
2023/06/03 05:22:56;;;;;;;4.75;1.00;;;10.80;99.90;;;;;;5003398;28;20096;-87
2023/06/03 05:25:22;;;;;;;3.38;0.80;;;10.80;99.90;;;;;;5004487;28;20085;-90
2023/06/03 05:27:48;;;;;;;2.58;1.00;;;11.00;99.90;;;;;;4954867;28;20050;-89
2023/06/03 05:30:14;;;;;;;1.05;0.80;;;11.70;99.90;;;;;;4983453;28;20384;-89
2023/06/03 05:32:44;;;;;;;4.47;0.95;;;10.90;99.90;;;;;;4986679;28;20042;-89
2023/06/03 05:35:10;;;;;;;4.05;0.98;;;;;;;;;;4967045;28;20049;-89
2023/06/03 05:37:36;;;;;;;1.20;0.60;;;10.90;99.90;;;;;;4970442;28;20447;-88
2023/06/03 05:40:02;;;;;;;6.10;1.20;;;11.00;99.90;;;;;;4985180;28;20065;-88
2023/06/03 05:42:28;;;;;;;1.88;1.05;;;11.00;99.90;;;;;;4969260;28;20053;-91
2023/06/03 05:44:54;;;;;;;2.03;0.95;;;11.10;99.90;;;;;;4990224;28;20046;-89
2023/06/03 05:47:20;;;;;;;2.05;1.10;;;11.10;99.90;;;;;;4993575;28;20047;-86
2023/06/03 05:49:45;;;;;;;3.80;0.98;;;11.10;99.90;;;;;;4993439;28;20587;-91
2023/06/03 05:52:11;;;;;;;2.78;1.00;;;12.80;99.90;;;;;;4995350;28;20049;-89
2023/06/03 05:54:37;;;;;;;2.30;0.88;;;12.30;99.90;;;;;;4994174;28;20042;-92
2023/06/03 05:57:03;;;;;;;1.33;0.70;;;11.30;99.90;;;;;;4991914;28;20525;-90
2023/06/03 05:59:29;;;;;;;2.65;0.47;;;11.30;99.90;;;;;;4990482;28;20052;-86
2023/06/03 06:01:55;;;;;;;2.47;0.85;;;11.40;99.90;;;;;;4993433;28;20070;-87
2023/06/03 06:04:20;;;;;;;3.67;1.17;;;11.80;99.90;;;;;;4992082;28;20053;-90
2023/06/03 06:06:49;;;;;;;1.20;0.60;;;;;;;;;;4992488;28;20420;-87
2023/06/03 06:09:15;;;;;;;3.78;0.85;;;11.60;99.90;;;;;;4974512;28;20101;-88
2023/06/03 06:11:42;;;;;;;3.47;0.75;;;13.40;99.90;;;;;;4987171;28;20042;-92
2023/06/03 06:14:08;;;;;;;5.05;1.10;;;12.30;99.90;;;;;;4973108;28;20088;-86
2023/06/03 06:16:33;;;;;;;3.83;1.20;;;11.70;99.90;;;;;;4959576;28;20070;-89
2023/06/03 06:19:00;;;;;;;1.67;0.85;;;11.80;99.90;;;;;;4973163;28;20078;-87
2023/06/03 06:21:26;;;;;;;1.02;0.73;;;13.10;99.90;;;;;;4989457;28;20474;-85
2023/06/03 06:23:51;;;;;;;1.30;0.93;;;11.90;99.90;;;;;;5002748;28;20045;-88
2023/06/03 06:26:17;;;;;;;1.80;0.60;;;13.90;99.90;;;;;;4987400;28;20069;-86
2023/06/03 06:28:45;;;;;;;3.90;0.75;;;12.00;99.90;;;;;;4960865;28;20042;-87
2023/06/03 06:31:11;;;;;;;1.67;0.50;;;12.40;99.90;;;;;;4977247;28;20042;-88
2023/06/03 06:33:38;;;;;;;1.70;0.60;;;13.70;99.90;;;;;;4999349;28;20065;-84
2023/06/03 06:36:27;;;;;;;4.60;0.80;;;12.20;99.90;;;;;;4991904;28;20053;-85
2023/06/03 06:38:53;;;;;;;1.45;0.60;;;12.30;99.90;;;;;;4975757;28;20088;-86
2023/06/03 06:41:19;;;;;;;3.90;0.60;;;12.40;99.90;;;;;;4977438;28;20093;-78
2023/06/03 06:43:44;;;;;;;1.73;0.60;;;12.60;99.90;;;;;;4972376;28;20085;-80
2023/06/03 06:46:11;;;;;;;4.10;0.75;;;12.50;99.90;;;;;;4990619;28;20065;-85
2023/06/03 06:48:38;;;;;;;3.20;0.65;;;12.60;99.90;;;;;;4982971;28;20055;-80
2023/06/03 06:51:06;;;;;;;3.92;0.70;;;12.70;99.90;;;;;;4992410;28;20057;-81
2023/06/03 06:53:34;;;;;;;6.65;1.25;;;12.80;99.90;;;;;;4638343;28;10000494;-79
2023/06/03 06:56:23;;;;;;;1.92;0.65;;;12.90;99.90;;;;;;4979219;28;20127;-78
2023/06/03 06:58:48;;;;;;;0.90;0.50;;;13.90;99.90;;;;;;4951234;28;20049;-80
2023/06/03 07:01:14;;;;;;;1.42;0.60;;;14.00;99.90;;;;;;4979515;28;20046;-81
2023/06/03 07:03:40;;;;;;;4.68;0.88;;;14.50;99.90;;;;;;4988001;28;20049;-79
2023/06/03 07:06:05;;;;;;;2.80;0.73;;;14.10;99.90;;;;;;4990182;28;20042;-81
2023/06/03 07:08:31;;;;;;;2.30;0.90;;;13.40;99.90;;;;;;4988716;28;20821;-81
2023/06/03 07:11:00;;;;;;;1.73;0.65;;;13.50;99.90;;;;;;4991014;28;20046;-83
2023/06/03 07:13:26;;;;;;;4.18;0.52;;;13.50;99.90;;;;;;4991829;28;20062;-82
2023/06/03 07:15:52;;;;;;;2.97;0.50;;;13.60;99.90;;;;;;4991125;28;20050;-85
2023/06/03 07:18:21;;;;;;;2.25;0.77;;;13.70;99.90;;;;;;4993250;28;20049;-84
2023/06/03 07:20:48;;;;;;;3.08;0.45;;;13.80;99.90;;;;;;4982875;28;20038;-86
2023/06/03 07:23:26;;;;;;;3.40;0.50;;;14.30;99.90;;;;;;4986564;28;21509;-82
2023/06/03 07:25:55;;;;;;;1.65;0.55;;;12.70;99.90;;;;;;4990732;28;20038;-81
2023/06/03 07:28:30;;;;;;;1.58;0.30;;;14.40;99.90;;;;;;4972688;28;20058;-85
2023/06/03 07:30:59;;;;;;;;;;;14.40;99.90;;;;;;4996538;28;20081;-85
2023/06/03 07:33:37;;;;;;;4.45;0.55;;;14.40;99.90;;;;;;4992421;28;19929;-85
2023/06/03 07:36:03;;;;;;;1.95;0.63;;;14.50;99.90;;;;;;4977757;28;20081;-78
2023/06/03 07:38:42;;;;;;;4.85;0.52;;;14.70;99.90;;;;;;4995115;28;20169;-79
2023/06/03 07:41:20;;;;;;;1.38;0.40;;;15.70;99.90;;;;;;4991772;28;20034;-85
2023/06/03 07:43:46;;;;;;;0.90;0.38;;;14.90;99.90;;;;;;4987823;28;20042;-80
2023/06/03 07:46:11;;;;;;;2.95;0.55;;;17.00;99.90;;;;;;4997160;28;20034;-81
2023/06/03 07:48:38;;;;;;;1.13;0.52;;;16.60;99.90;;;;;;4988744;28;20390;-79
2023/06/03 07:51:05;;;;;;;1.80;0.52;;;16.00;99.90;;;;;;4969285;28;20038;-83
2023/06/03 07:53:35;;;;;;;2.80;0.40;;;15.00;99.90;;;;;;4981633;28;20058;-84
2023/06/03 07:56:08;;;;;;;1.98;0.30;;;14.90;99.90;;;;;;5005528;28;20037;-83
2023/06/03 07:58:36;;;;;;;2.83;0.52;;;14.90;99.90;;;;;;4991019;28;20050;-83
2023/06/03 08:01:03;;;;;;;1.52;0.40;;;14.90;99.90;;;;;;4995399;28;20038;-84
2023/06/03 08:03:30;;;;;;;1.38;0.32;;;14.90;99.90;;;;;;4995231;28;20054;-82
2023/06/03 08:05:56;;;;;;;2.08;0.60;;;14.90;99.90;;;;;;4978529;28;20045;-81
2023/06/03 08:08:32;;;;;;;0.75;0.30;;;14.90;99.90;;;;;;4995728;28;20537;-82
2023/06/03 08:11:00;;;;;;;2.65;0.30;;;14.90;99.90;;;;;;4996788;28;20057;-81
2023/06/03 08:13:26;;;;;;;1.50;0.50;;;14.80;99.90;;;;;;4987826;28;20082;-83
2023/06/03 08:15:51;;;;;;;0.77;0.43;;;14.80;99.90;;;;;;4994193;28;20069;-83
2023/06/03 08:18:47;;;;;;;2.08;0.30;;;15.60;99.90;;;;;;4996031;28;20038;-84
2023/06/03 08:21:13;;;;;;;1.52;0.40;;;14.80;99.90;;;;;;4987129;28;20118;-81
2023/06/03 08:23:40;;;;;;;1.30;0.43;;;16.20;99.90;;;;;;4993081;28;20071;-82
2023/06/03 08:26:06;;;;;;;4.80;0.52;;;16.60;99.90;;;;;;4993885;28;20670;-82
2023/06/03 08:28:31;;;;;;;2.15;0.90;;;14.80;99.90;;;;;;4999931;28;20049;-82
2023/06/03 08:30:58;;;;;;;1.85;0.30;;;14.90;99.90;;;;;;5010973;28;20038;-82
2023/06/03 08:33:24;;;;;;;2.70;0.40;;;16.20;99.90;;;;;;5012935;28;20524;-83
2023/06/03 08:35:50;;;;;;;1.95;0.40;;;16.30;99.90;;;;;;5021546;28;20038;-82
2023/06/03 08:38:16;;;;;;;3.50;0.35;;;15.10;99.90;;;;;;5010022;28;20079;-84
2023/06/03 08:40:50;;;;;;;3.88;0.47;;;15.10;99.90;;;;;;5011716;28;20064;-83
2023/06/03 08:43:16;;;;;;;0.52;0.28;;;15.40;99.90;;;;;;5005914;28;20105;-82
2023/06/03 08:45:45;;;;;;;2.50;0.40;;;15.30;99.90;;;;;;4988988;28;20113;-83
2023/06/03 08:48:44;;;;;;;2.17;0.55;;;17.30;99.90;;;;;;4994731;28;20073;-82
2023/06/03 08:51:13;;;;;;;1.60;0.40;;;15.40;99.80;;;;;;5000991;28;20034;-83
2023/06/03 08:53:49;;;;;;;2.38;0.80;;;15.50;99.70;;;;;;5009146;28;20049;-84
2023/06/03 08:56:17;;;;;;;1.88;0.40;;;15.80;99.50;;;;;;5005048;28;20510;-84
2023/06/03 08:59:00;;;;;;;2.75;0.45;;;15.60;99.30;;;;;;5009417;28;20504;-84
2023/06/03 09:01:37;;;;;;;1.75;0.30;;;15.60;99.00;;;;;;5001384;28;20385;-82
2023/06/03 09:04:03;;;;;;;2.45;0.40;;;15.70;97.80;;;;;;5008964;28;20040;-82
2023/06/03 09:06:30;;;;;;;1.25;0.20;;;15.80;98.10;;;;;;5010711;28;20045;-82
2023/06/03 09:08:57;;;;;;;8.18;0.50;;;15.80;98.20;;;;;;5002310;28;20088;-82
2023/06/03 09:11:24;;;;;;;1.02;0.32;;;15.90;97.90;;;;;;5002254;28;20038;-82
2023/06/03 09:13:51;;;;;;;0.50;0.30;;;17.10;98.00;;;;;;5000759;28;20126;-82
2023/06/03 09:16:19;;;;;;;2.40;0.30;;;16.00;96.90;;;;;;5010018;28;20049;-82
2023/06/03 09:18:45;;;;;;;3.90;0.52;;;17.20;96.80;;;;;;4984757;28;20046;-82
2023/06/03 09:21:10;;;;;;;1.40;0.30;;;16.00;96.50;;;;;;4969001;28;20038;-83
2023/06/03 09:23:40;;;;;;;0.50;0.30;;;16.20;96.60;;;;;;5007957;28;20095;-83
2023/06/03 09:26:06;;;;;;;2.15;0.30;;;16.80;96.50;;;;;;5006687;28;20077;-83
2023/06/03 09:28:35;;;;;;;0.65;0.22;;;16.30;96.30;;;;;;4997547;28;20105;-83
2023/06/03 09:31:02;;;;;;;3.90;0.52;;;16.60;96.20;;;;;;5001785;28;20501;-83
2023/06/03 09:33:28;;;;;;;1.20;0.30;;;16.40;95.90;;;;;;5024609;28;20481;-82
2023/06/03 09:36:13;;;;;;;0.45;0.45;;;16.80;96.20;;;;;;5000003;28;20064;-82
2023/06/03 09:38:55;;;;;;;5.72;5.20;;;16.60;96.10;;;;;;4999167;28;20042;-83
2023/06/03 09:41:29;;;;;;;13.50;5.95;;;16.60;96.20;;;;;;5019155;28;20042;-82
2023/06/03 09:44:01;;;;;;;2.22;0.47;;;16.70;96.10;;;;;;5009158;28;20065;-82
2023/06/03 09:46:29;;;;;;;5.00;0.50;;;17.90;95.20;;;;;;4995705;28;20414;-82
2023/06/03 09:49:17;;;;;;;2.25;0.43;;;16.80;95.20;;;;;;5001327;28;20073;-82
2023/06/03 09:51:48;;;;;;;2.67;0.40;;;16.90;94.80;;;;;;5000427;28;20045;-83
2023/06/03 09:54:15;;;;;;;1.83;0.40;;;17.00;95.20;;;;;;4986010;28;20066;-83
2023/06/03 09:56:42;;;;;;;1.65;0.60;;;18.40;95.10;;;;;;4984143;28;20056;-83
2023/06/03 09:59:25;;;;;;;3.13;0.20;;;17.20;94.80;;;;;;5002375;28;20048;-83
2023/06/03 10:01:53;;;;;;;1.75;0.60;;;17.20;94.70;;;;;;5001905;28;20049;-83
2023/06/03 10:04:40;;;;;;;3.97;0.50;;;17.30;94.40;;;;;;5001888;28;20429;-83
2023/06/03 10:07:11;;;;;;;1.60;0.40;;;17.30;94.30;;;;;;5009625;28;20033;-83
2023/06/03 10:09:37;;;;;;;2.38;0.30;;;17.80;94.60;;;;;;5003757;28;20061;-83
2023/06/03 10:12:04;;;;;;;2.78;0.50;;;17.40;94.20;;;;;;5001956;28;20088;-83
2023/06/03 10:14:30;;;;;;;2.60;0.47;;;17.50;94.00;;;;;;4993251;28;20444;-84
2023/06/03 10:17:05;;;;;;;1.92;0.47;;;17.60;94.00;;;;;;5012125;28;20113;-83
2023/06/03 10:19:42;;;;;;;3.08;0.50;;;17.70;92.90;;;;;;5005311;28;20175;-81
2023/06/03 10:22:10;;;;;;;2.60;0.40;;;17.80;92.90;;;;;;5007968;28;20497;-84
2023/06/03 10:24:40;;;;;;;3.80;0.50;;;18.50;93.30;;;;;;4993082;28;20069;-83
2023/06/03 10:27:06;;;;;;;4.80;0.68;;;17.80;93.20;;;;;;5003158;28;20406;-83
2023/06/03 10:29:39;;;;;;;2.70;0.50;;;17.90;93.60;;;;;;5005270;28;20069;-81
2023/06/03 10:32:12;;;;;;;3.90;0.32;;;18.00;93.70;;;;;;5001545;28;21003;-83
2023/06/03 10:34:43;;;;;;;5.05;0.55;;;18.10;93.30;;;;;;5020797;28;20049;-84
2023/06/03 10:37:10;;;;;;;2.20;0.30;;;18.10;93.10;;;;;;5014118;28;20110;-83
2023/06/03 10:39:36;;;;;;;0.85;0.40;;;18.20;93.20;;;;;;4999707;28;20057;-83
2023/06/03 10:42:05;;;;;;;3.85;0.43;;;18.20;93.00;;;;;;5007715;28;20050;-83
2023/06/03 10:44:32;;;;;;;4.57;1.00;;;18.30;92.80;;;;;;5012589;28;20054;-82
2023/06/03 10:47:26;;;;;;;1.08;0.40;;;18.40;92.80;;;;;;4990572;28;20057;-82
2023/06/03 10:50:11;;;;;;;1.38;0.52;;;18.50;92.50;;;;;;4996531;28;20485;-80
2023/06/03 10:52:39;;;;;;;1.95;0.47;;;18.60;92.40;;;;;;5017564;28;20082;-81
2023/06/03 10:55:25;;;;;;;5.22;0.70;;;18.60;92.40;;;;;;5002694;28;20042;-79
2023/06/03 10:58:20;;;;;;;2.28;0.40;;;18.80;91.40;;;;;;5002059;28;20072;-81
2023/06/03 11:00:57;;;;;;;0.60;0.32;;;18.90;91.40;;;;;;4997963;28;20097;-82
2023/06/03 11:03:26;;;;;;;2.95;0.70;;;19.00;92.10;;;;;;5006441;28;20486;-80
2023/06/03 11:05:53;;;;;;;2.30;0.55;;;19.00;91.70;;;;;;5004551;28;20061;-81
2023/06/03 11:08:57;;;;;;;1.92;0.40;;;19.20;92.10;;;;;;5006310;28;20092;-77
2023/06/03 11:11:41;;;;;;;1.80;0.37;;;19.20;91.90;;;;;;5002198;28;20050;-79
2023/06/03 11:14:27;;;;;;;2.08;0.90;;;19.30;90.90;;;;;;5011992;28;20041;-79
2023/06/03 11:16:59;;;;;;;2.55;0.50;;;19.90;90.90;;;;;;4977021;28;20648;-80
2023/06/03 11:19:31;;;;;;;1.25;0.40;;;19.50;91.00;;;;;;5014184;28;20066;-80
2023/06/03 11:22:10;;;;;;;1.25;0.52;;;19.50;90.90;;;;;;5027182;28;20045;-80
2023/06/03 11:24:38;;;;;;;1.40;0.57;;;19.60;90.80;;;;;;5008368;28;20133;-80
2023/06/03 11:27:15;;;;;;;7.60;0.43;;;19.80;90.70;;;;;;5007134;28;20555;-80
2023/06/03 11:29:51;;;;;;;1.83;0.55;;;19.90;90.80;;;;;;4995902;28;20053;-90
2023/06/03 11:32:21;;;;;;;1.98;0.60;;;19.90;90.40;;;;;;5014860;28;20038;-87
2023/06/03 11:34:48;;;;;;;3.55;0.57;;;19.90;90.00;;;;;;5007489;28;20042;-87
2023/06/03 11:37:49;;;;;;;2.08;0.73;;;20.00;90.20;;;;;;4987782;28;20065;-86
2023/06/03 11:40:19;;;;;;;1.20;0.30;;;20.10;89.30;;;;;;5001543;28;20074;-86
2023/06/03 11:42:48;;;;;;;4.97;0.57;;;20.20;89.30;;;;;;5008927;28;20045;-89
2023/06/03 11:45:36;;;;;;;1.08;0.43;;;20.30;87.80;;;;;;5011414;28;20410;-88
2023/06/03 11:48:08;;;;;;;2.30;0.38;;;20.40;88.20;;;;;;5001259;28;20399;-85
2023/06/03 11:50:53;;;;;;;2.35;0.50;;;20.60;88.30;;;;;;5010864;28;20042;-87
2023/06/03 11:53:33;;;;;;;1.90;0.38;;;20.80;88.30;;;;;;5007374;28;20050;-85
2023/06/03 11:56:06;;;;;;;2.40;0.77;;;20.90;88.10;;;;;;5001676;28;20033;-84
2023/06/03 11:58:33;;;;;;;1.08;0.57;;;21.00;87.20;;;;;;5014433;28;20042;-86
2023/06/03 12:01:24;;;;;;;0.88;0.60;;;21.10;86.60;;;;;;5012767;28;20184;-84
2023/06/03 12:04:01;;;;;;;2.83;0.40;;;21.30;86.80;;;;;;5021020;28;20117;-84
2023/06/03 12:06:37;;;;;;;2.30;0.30;;;21.40;86.20;;;;;;5013835;28;20386;-84
2023/06/03 12:09:03;;;;;;;2.17;0.60;;;21.50;85.30;;;;;;5008598;28;20038;-84
2023/06/03 12:11:33;;;;;;;2.22;0.55;;;21.60;85.20;;;;;;5011213;28;20045;-82
2023/06/03 12:13:59;;;;;;;0.65;0.60;;;21.80;83.80;;;;;;5004184;28;20042;-84
2023/06/03 12:16:35;;;;;;;2.90;0.40;;;21.80;83.50;;;;;;5009870;28;20048;-80
2023/06/03 12:19:03;;;;;;;1.27;0.30;;;21.90;83.60;;;;;;4997617;28;20461;-89
2023/06/03 12:21:29;;;;;;;0.50;0.40;;;22.10;82.80;;;;;;5003691;28;20445;-83
2023/06/03 12:23:56;;;;;;;1.42;0.40;;;22.10;82.80;;;;;;5011217;28;20054;-84
2023/06/03 12:26:24;;;;;;;2.67;0.47;;;22.20;82.30;;;;;;5008456;28;20038;-86
2023/06/03 12:28:49;;;;;;;0.68;0.43;;;22.30;81.60;;;;;;5000906;28;20064;-83
2023/06/03 12:31:17;;;;;;;0.98;0.50;;;22.40;80.90;;;;;;5008897;28;20046;-86
2023/06/03 12:33:44;;;;;;;0.65;0.40;;;22.40;80.50;;;;;;5007949;28;20056;-82
2023/06/03 12:36:11;;;;;;;1.98;0.30;;;22.50;80.70;;;;;;5010295;28;20171;-83
2023/06/03 12:38:55;;;;;;;1.30;0.30;;;22.50;79.00;;;;;;4982255;28;20386;-81
2023/06/03 12:41:21;;;;;;;4.43;0.50;;;22.60;79.10;;;;;;5008280;28;20046;-83
2023/06/03 12:43:48;;;;;;;1.95;0.40;;;22.70;78.90;;;;;;4996124;28;20038;-83
2023/06/03 12:46:18;;;;;;;0.55;0.43;;;22.70;77.80;;;;;;5009159;28;20042;-82
2023/06/03 12:48:44;;;;;;;2.17;0.47;;;23.40;76.40;;;;;;5004396;28;20043;-79
2023/06/03 12:51:24;;;;;;;0.82;0.40;;;22.60;76.70;;;;;;4997014;28;20137;-82
2023/06/03 12:53:55;;;;;;;1.90;0.47;;;22.70;77.20;;;;;;5003871;28;20050;-82
2023/06/03 12:56:24;;;;;;;1.60;0.50;;;22.80;76.60;;;;;;5009516;28;20044;-82
2023/06/03 12:59:00;;;;;;;0.82;0.22;;;22.70;75.70;;;;;;5003071;28;20072;-83
2023/06/03 13:01:26;;;;;;;1.15;0.50;;;23.20;76.80;;;;;;4999128;28;20053;-82